Time;durP1;ratioP1;P1;durP2;ratioP2;P2;SDS_P1;SDS_P2;PMS_P1;PMS_P2;Temp;Humidity;BMP_temperature;BMP_pressure;BME280_temperature;BME280_humidity;BME280_pressure;Samples;Min_cycle;Max_cycle;Signal;HPM_P1;HPM_P2
2022/08/01 00:01:35;;;;;;;13.27;8.57;;;21.20;99.90;;;;;;5033530;28;20101;-74
2022/08/01 00:04:00;;;;;;;9.13;6.80;;;21.20;99.90;;;;;;5033491;28;20025;-74
2022/08/01 00:06:27;;;;;;;11.10;8.23;;;21.20;99.90;;;;;;5033519;28;20045;-74
2022/08/01 00:08:52;;;;;;;10.25;7.53;;;21.20;99.90;;;;;;5033045;28;20037;-74
2022/08/01 00:11:18;;;;;;;8.95;7.68;;;21.10;99.90;;;;;;5033396;28;20491;-75
2022/08/01 00:13:44;;;;;;;11.52;7.90;;;21.20;99.90;;;;;;5033462;28;20033;-76
2022/08/01 00:16:09;;;;;;;11.30;7.88;;;21.20;99.90;;;;;;5033204;28;20030;-75
2022/08/01 00:18:35;;;;;;;11.90;8.40;;;21.20;99.90;;;;;;5032949;28;20021;-76
2022/08/01 00:21:02;;;;;;;8.80;7.47;;;21.20;99.90;;;;;;5033312;28;20024;-75
2022/08/01 00:23:28;;;;;;;8.15;6.55;;;21.20;99.90;;;;;;5032755;28;20059;-75
2022/08/01 00:25:53;;;;;;;10.32;7.68;;;21.30;99.90;;;;;;5033213;28;20108;-75
2022/08/01 00:28:19;;;;;;;13.65;8.93;;;21.30;99.90;;;;;;5033193;28;20496;-75
2022/08/01 00:30:44;;;;;;;9.80;8.38;;;21.20;99.90;;;;;;5032875;28;20101;-75
2022/08/01 00:33:10;;;;;;;14.10;9.80;;;21.30;99.90;;;;;;5033149;28;20057;-75
2022/08/01 00:35:35;;;;;;;12.13;9.20;;;21.20;99.90;;;;;;5033157;28;20021;-75
2022/08/01 00:38:01;;;;;;;10.32;8.02;;;21.20;99.90;;;;;;5032878;28;20488;-75
2022/08/01 00:40:27;;;;;;;11.23;8.93;;;21.10;99.90;;;;;;5032960;28;20099;-75
2022/08/01 00:42:52;;;;;;;11.70;8.68;;;21.10;99.90;;;;;;5033064;28;20021;-75
2022/08/01 00:45:18;;;;;;;13.55;9.95;;;21.10;99.90;;;;;;5032782;28;20428;-75
2022/08/01 00:47:44;;;;;;;12.30;9.27;;;21.20;99.90;;;;;;5032793;28;20033;-75
2022/08/01 00:50:10;;;;;;;10.52;8.05;;;21.10;99.90;;;;;;5032672;28;20029;-75
2022/08/01 00:52:36;;;;;;;14.55;10.88;;;21.10;99.90;;;;;;5033101;28;20030;-75
2022/08/01 00:55:03;;;;;;;12.63;10.65;;;21.10;99.90;;;;;;5032964;28;20545;-75
2022/08/01 00:57:29;;;;;;;13.60;11.00;;;21.10;99.80;;;;;;5032788;28;20393;-75
2022/08/01 00:59:56;;;;;;;12.68;11.00;;;21.10;99.80;;;;;;5033929;28;20104;-75
2022/08/01 01:02:21;;;;;;;13.63;11.45;;;21.10;99.70;;;;;;5036542;28;20025;-75
2022/08/01 01:04:47;;;;;;;15.25;10.95;;;21.10;99.70;;;;;;5036582;28;20026;-76
2022/08/01 01:07:37;;;;;;;14.95;10.82;;;21.10;99.70;;;;;;5036250;28;20388;-76
2022/08/01 01:10:30;;;;;;;14.98;11.68;;;21.10;99.80;;;;;;5036493;28;20026;-76
2022/08/01 01:13:08;;;;;;;15.77;11.32;;;21.00;99.70;;;;;;5036333;28;20025;-76
2022/08/01 01:15:39;;;;;;;14.25;10.43;;;21.00;99.80;;;;;;5036173;28;20037;-75
2022/08/01 01:18:24;;;;;;;17.13;10.82;;;21.00;99.80;;;;;;5036298;28;20025;-75
2022/08/01 01:21:03;;;;;;;15.13;10.48;;;21.00;99.80;;;;;;5036186;28;20060;-75
2022/08/01 01:24:02;;;;;;;11.95;10.05;;;21.00;99.70;;;;;;5036094;28;20041;-75
2022/08/01 01:26:54;;;;;;;13.82;9.90;;;21.00;99.80;;;;;;5036117;28;20021;-76
2022/08/01 01:29:35;;;;;;;10.85;9.00;;;20.90;99.80;;;;;;5036149;28;20029;-75
2022/08/01 01:32:15;;;;;;;10.50;8.75;;;21.00;99.80;;;;;;5035878;28;20534;-75
2022/08/01 01:34:44;;;;;;;11.95;8.80;;;21.00;99.80;;;;;;5036063;28;20108;-74
2022/08/01 01:37:15;;;;;;;11.25;8.10;;;21.00;99.80;;;;;;5036034;28;20026;-75
2022/08/01 01:39:42;;;;;;;10.50;8.05;;;21.00;99.80;;;;;;5036145;28;20028;-75
2022/08/01 01:42:09;;;;;;;11.27;8.05;;;21.00;99.80;;;;;;5035726;28;20029;-75
2022/08/01 01:44:36;;;;;;;11.73;8.45;;;21.00;99.70;;;;;;5035771;28;20087;-75
2022/08/01 01:47:04;;;;;;;11.82;7.68;;;20.90;99.80;;;;;;5035808;28;20420;-76
2022/08/01 01:49:31;;;;;;;10.90;8.15;;;21.00;99.80;;;;;;5035874;28;20033;-76
2022/08/01 01:52:00;;;;;;;9.10;7.15;;;20.90;99.80;;;;;;5035564;28;20025;-76
2022/08/01 01:54:31;;;;;;;8.88;7.05;;;20.90;99.80;;;;;;5035459;28;20087;-76
2022/08/01 01:56:59;;;;;;;9.65;7.22;;;20.90;99.90;;;;;;5035339;28;20025;-76
2022/08/01 01:59:28;;;;;;;10.13;7.68;;;20.90;99.90;;;;;;5035664;28;20025;-75
2022/08/01 02:01:58;;;;;;;12.52;7.90;;;21.00;99.90;;;;;;5035572;28;20079;-75
2022/08/01 02:04:26;;;;;;;9.82;7.60;;;21.00;99.90;;;;;;5035471;28;20029;-75
2022/08/01 02:06:53;;;;;;;13.48;7.53;;;21.00;99.90;;;;;;5035600;28;20469;-74
2022/08/01 02:09:21;;;;;;;9.63;7.30;;;21.00;99.90;;;;;;5035061;28;20059;-74
2022/08/01 02:11:49;;;;;;;14.30;8.15;;;21.00;99.80;;;;;;5034229;28;20465;-75
2022/08/01 02:14:18;;;;;;;9.93;6.53;;;21.00;99.80;;;;;;5035072;28;20049;-75
2022/08/01 02:16:47;;;;;;;13.02;7.10;;;21.00;99.90;;;;;;5035362;28;20231;-75
2022/08/01 02:19:14;;;;;;;10.13;6.72;;;21.00;99.90;;;;;;5035208;28;20018;-75
2022/08/01 02:21:54;;;;;;;10.40;6.22;;;21.00;99.90;;;;;;5034725;28;20101;-76
2022/08/01 02:25:00;;;;;;;8.65;6.07;;;20.90;99.90;;;;;;5034856;28;20544;-76
2022/08/01 02:27:37;;;;;;;10.07;5.50;;;21.00;99.90;;;;;;5035233;28;20156;-76
2022/08/01 02:30:06;;;;;;;10.63;6.90;;;21.00;99.90;;;;;;5034888;28;20061;-76
2022/08/01 02:32:46;;;;;;;14.13;7.13;;;21.00;99.80;;;;;;5034545;28;20111;-76
2022/08/01 02:35:17;;;;;;;11.07;6.70;;;21.00;99.90;;;;;;5034828;28;20469;-76
2022/08/01 02:37:45;;;;;;;15.63;7.80;;;21.00;99.90;;;;;;5035143;28;20389;-75
2022/08/01 02:40:12;;;;;;;11.57;7.38;;;21.00;99.90;;;;;;5034561;28;20725;-76
2022/08/01 02:42:43;;;;;;;11.88;7.10;;;20.90;99.90;;;;;;5034748;28;20136;-76
2022/08/01 02:45:10;;;;;;;10.55;7.03;;;20.90;99.90;;;;;;5034549;28;20511;-75
2022/08/01 02:47:38;;;;;;;11.55;7.00;;;20.90;99.90;;;;;;5034472;28;20065;-76
2022/08/01 02:50:05;;;;;;;12.90;7.63;;;21.00;99.90;;;;;;5034806;28;20033;-75
2022/08/01 02:52:32;;;;;;;11.70;7.47;;;21.00;99.90;;;;;;5034261;28;20080;-75
2022/08/01 02:54:59;;;;;;;11.45;6.75;;;20.90;99.90;;;;;;5034600;28;20430;-76
2022/08/01 02:57:27;;;;;;;13.55;8.23;;;20.90;99.90;;;;;;5034315;28;20025;-75
2022/08/01 02:59:54;;;;;;;10.38;6.93;;;20.90;99.90;;;;;;5034505;28;20390;-76
2022/08/01 03:02:22;;;;;;;10.75;6.47;;;20.90;99.90;;;;;;5034545;28;20026;-75
2022/08/01 03:04:51;;;;;;;10.77;5.80;;;20.90;99.90;;;;;;5034504;28;20036;-76
2022/08/01 03:07:17;;;;;;;13.10;7.28;;;20.90;99.90;;;;;;5034031;28;20026;-75
2022/08/01 03:09:45;;;;;;;8.90;6.20;;;20.90;99.90;;;;;;5034196;28;20044;-75
2022/08/01 03:12:22;;;;;;;6.93;5.28;;;20.90;99.90;;;;;;5034275;28;20049;-76
2022/08/01 03:14:51;;;;;;;10.70;6.40;;;20.90;99.90;;;;;;5034273;28;20033;-76
2022/08/01 03:17:18;;;;;;;9.35;6.50;;;20.90;99.90;;;;;;5033942;28;20025;-75
2022/08/01 03:19:46;;;;;;;10.93;6.50;;;20.90;99.90;;;;;;5034084;28;20045;-75
2022/08/01 03:22:14;;;;;;;5.90;4.72;;;20.80;99.90;;;;;;5033662;28;20080;-75
2022/08/01 03:24:42;;;;;;;6.30;4.80;;;20.80;99.90;;;;;;5033113;28;20025;-75
2022/08/01 03:27:09;;;;;;;7.15;4.55;;;20.80;99.90;;;;;;5033937;28;20029;-75
2022/08/01 03:29:37;;;;;;;5.97;4.28;;;20.90;99.90;;;;;;5033501;28;20032;-75
2022/08/01 03:32:03;;;;;;;4.65;3.60;;;20.90;99.90;;;;;;5033688;28;20082;-75
2022/08/01 03:34:29;;;;;;;4.70;3.70;;;20.90;99.90;;;;;;5033640;28;20028;-74
2022/08/01 03:37:03;;;;;;;5.85;3.67;;;20.80;99.90;;;;;;5033693;28;20036;-75
2022/08/01 03:39:34;;;;;;;6.53;4.57;;;20.80;99.90;;;;;;5033907;28;20028;-75
2022/08/01 03:42:09;;;;;;;5.10;3.42;;;20.80;99.90;;;;;;5033580;28;20025;-75
2022/08/01 03:44:38;;;;;;;5.30;4.47;;;20.80;99.90;;;;;;5033882;28;20381;-75
2022/08/01 03:47:06;;;;;;;5.03;3.70;;;20.80;99.90;;;;;;5033395;28;20029;-75
2022/08/01 03:49:35;;;;;;;5.25;4.45;;;20.80;99.90;;;;;;5033390;28;20041;-75
2022/08/01 03:52:04;;;;;;;6.75;4.07;;;20.90;99.90;;;;;;5033078;28;20057;-75
2022/08/01 03:54:33;;;;;;;5.95;4.05;;;20.80;99.90;;;;;;5033324;28;20079;-75
2022/08/01 03:57:01;;;;;;;3.78;3.05;;;20.80;99.90;;;;;;5033481;28;20025;-75
2022/08/01 03:59:27;;;;;;;3.78;3.00;;;20.80;99.90;;;;;;5033651;28;20429;-75
2022/08/01 04:01:53;;;;;;;4.45;2.72;;;20.80;99.90;;;;;;5033168;28;20427;-75
2022/08/01 04:04:19;;;;;;;4.07;2.70;;;20.80;99.90;;;;;;5033022;28;20075;-75
2022/08/01 04:06:45;;;;;;;4.63;2.67;;;20.80;99.90;;;;;;5033227;28;20022;-75
2022/08/01 04:09:11;;;;;;;2.67;2.13;;;20.80;99.90;;;;;;5033362;28;20037;-75
2022/08/01 04:11:40;;;;;;;3.92;3.10;;;20.80;99.90;;;;;;5033520;28;20043;-75
2022/08/01 04:14:06;;;;;;;5.38;3.78;;;20.80;99.90;;;;;;5033055;28;20060;-75
2022/08/01 04:16:31;;;;;;;6.03;4.05;;;20.80;99.90;;;;;;5033380;28;20050;-75
2022/08/01 04:18:57;;;;;;;6.18;4.82;;;20.80;99.90;;;;;;5033404;28;20017;-75
2022/08/01 04:21:27;;;;;;;6.60;4.53;;;20.80;99.90;;;;;;5033363;28;20544;-75
2022/08/01 04:23:55;;;;;;;4.75;4.05;;;20.80;99.90;;;;;;5032950;28;20370;-75
2022/08/01 04:26:23;;;;;;;4.57;4.10;;;20.70;99.90;;;;;;5033346;28;20036;-75
2022/08/01 04:28:50;;;;;;;6.50;4.93;;;20.70;99.90;;;;;;5033073;28;20116;-75
2022/08/01 04:31:17;;;;;;;6.88;5.30;;;20.80;99.90;;;;;;5033018;28;20029;-75
2022/08/01 04:33:45;;;;;;;6.82;5.38;;;20.80;99.90;;;;;;5032948;28;20472;-75
2022/08/01 04:36:14;;;;;;;8.35;5.70;;;20.80;99.90;;;;;;5036398;28;20026;-75
2022/08/01 04:38:41;;;;;;;9.38;5.55;;;20.70;99.90;;;;;;5037260;28;20029;-74
2022/08/01 04:41:10;;;;;;;8.75;6.05;;;20.70;99.90;;;;;;5037007;28;20026;-74
2022/08/01 04:43:37;;;;;;;9.70;6.13;;;20.60;99.90;;;;;;5037083;28;20022;-74
2022/08/01 04:46:03;;;;;;;6.78;5.55;;;20.60;99.90;;;;;;5037088;28;20110;-75
2022/08/01 04:48:31;;;;;;;7.47;6.20;;;20.60;99.90;;;;;;5036679;28;20389;-75
2022/08/01 04:50:56;;;;;;;6.82;5.88;;;20.60;99.90;;;;;;5036409;28;20029;-75
2022/08/01 04:53:22;;;;;;;7.47;5.57;;;20.60;99.90;;;;;;5036435;28;20112;-75
2022/08/01 04:55:48;;;;;;;9.57;5.82;;;20.60;99.90;;;;;;5036234;28;20029;-75
2022/08/01 04:58:16;;;;;;;6.43;5.20;;;20.60;99.90;;;;;;5036258;28;20029;-75
2022/08/01 05:00:42;;;;;;;7.97;5.65;;;20.60;99.90;;;;;;5036372;28;20127;-75
2022/08/01 05:03:08;;;;;;;6.43;5.40;;;20.60;99.90;;;;;;5036624;28;20519;-75
2022/08/01 05:05:34;;;;;;;6.38;5.32;;;20.60;99.90;;;;;;5036534;28;20099;-75
2022/08/01 05:08:00;;;;;;;9.50;6.72;;;20.60;99.90;;;;;;5036347;28;20057;-75
2022/08/01 05:10:27;;;;;;;6.25;5.07;;;20.60;99.90;;;;;;5036248;28;20057;-75
2022/08/01 05:12:52;;;;;;;6.13;5.50;;;20.60;99.90;;;;;;5035881;28;20029;-75
2022/08/01 05:15:18;;;;;;;8.45;6.60;;;20.60;99.90;;;;;;5036415;28;20101;-75
2022/08/01 05:17:44;;;;;;;7.47;6.30;;;20.60;99.90;;;;;;5036096;28;20029;-75
2022/08/01 05:20:11;;;;;;;8.27;6.68;;;20.60;99.90;;;;;;5036301;28;20032;-75
2022/08/01 05:22:37;;;;;;;5.78;4.75;;;20.60;99.90;;;;;;5035695;28;20041;-75
2022/08/01 05:25:04;;;;;;;7.07;5.30;;;20.60;99.90;;;;;;5036149;28;20029;-75
2022/08/01 05:27:30;;;;;;;6.80;5.38;;;20.60;99.90;;;;;;5035873;28;20105;-75
2022/08/01 05:29:56;;;;;;;8.38;6.63;;;20.70;99.90;;;;;;5036279;28;20033;-75
2022/08/01 05:32:22;;;;;;;8.95;5.93;;;20.70;99.90;;;;;;5035965;28;20025;-75
2022/08/01 05:34:47;;;;;;;5.90;5.30;;;20.60;99.90;;;;;;5036146;28;20529;-75
2022/08/01 05:37:13;;;;;;;6.95;5.28;;;20.70;99.90;;;;;;5035961;28;20037;-75
2022/08/01 05:39:39;;;;;;;6.40;5.57;;;20.70;99.90;;;;;;5035892;28;20366;-75
2022/08/01 05:42:04;;;;;;;4.97;4.47;;;20.70;99.90;;;;;;5035317;28;20108;-75
2022/08/01 05:44:30;;;;;;;7.45;4.93;;;20.70;99.90;;;;;;5036137;28;20033;-75
2022/08/01 05:46:56;;;;;;;7.32;5.22;;;20.70;99.90;;;;;;5034788;28;20013;-75
2022/08/01 05:49:21;;;;;;;6.40;4.65;;;20.70;99.90;;;;;;5035492;28;20096;-75
2022/08/01 05:51:47;;;;;;;5.35;4.28;;;20.70;99.90;;;;;;5035885;28;20117;-75
2022/08/01 05:54:12;;;;;;;7.50;4.30;;;20.70;99.90;;;;;;5035601;28;20050;-75
2022/08/01 05:56:38;;;;;;;5.05;3.53;;;20.70;99.90;;;;;;5035769;28;20053;-75
2022/08/01 05:59:03;;;;;;;5.75;3.65;;;20.70;99.90;;;;;;5035718;28;20025;-75
2022/08/01 06:01:29;;;;;;;3.72;3.00;;;20.70;99.90;;;;;;5035583;28;20075;-76
2022/08/01 06:03:55;;;;;;;2.53;2.28;;;20.70;99.90;;;;;;5035757;28;20052;-75
2022/08/01 06:06:21;;;;;;;2.67;2.38;;;20.60;99.90;;;;;;5035314;28;20460;-76
2022/08/01 06:08:47;;;;;;;2.35;2.15;;;20.60;99.90;;;;;;5035468;28;20041;-76
2022/08/01 06:11:13;;;;;;;2.00;1.80;;;20.60;99.90;;;;;;5035472;28;20447;-76
2022/08/01 06:13:38;;;;;;;2.60;1.73;;;20.60;99.90;;;;;;5035491;28;20029;-75
2022/08/01 06:16:04;;;;;;;1.88;1.52;;;20.60;99.90;;;;;;5035353;28;20028;-75
2022/08/01 06:18:30;;;;;;;1.65;1.20;;;20.50;99.90;;;;;;5035284;28;20029;-75
2022/08/01 06:20:55;;;;;;;1.60;1.27;;;20.50;99.90;;;;;;5034863;28;20032;-75
2022/08/01 06:23:21;;;;;;;2.30;1.00;;;20.50;99.90;;;;;;5034437;28;20059;-75
2022/08/01 06:25:47;;;;;;;1.73;0.90;;;20.60;99.90;;;;;;5035269;28;20080;-75
2022/08/01 06:28:13;;;;;;;1.27;0.73;;;20.50;99.90;;;;;;5035105;28;20040;-75
2022/08/01 06:30:38;;;;;;;1.95;0.60;;;20.50;99.90;;;;;;5035164;28;20125;-75
2022/08/01 06:33:04;;;;;;;1.13;0.60;;;20.40;99.90;;;;;;5034794;28;20346;-75
2022/08/01 06:35:30;;;;;;;0.75;0.43;;;20.40;99.90;;;;;;5034697;28;20025;-75
2022/08/01 06:37:57;;;;;;;1.15;0.40;;;20.40;99.90;;;;;;5034733;28;20036;-75
2022/08/01 06:40:23;;;;;;;1.33;0.50;;;20.40;99.90;;;;;;5034584;28;20465;-76
2022/08/01 06:42:49;;;;;;;1.33;0.50;;;20.40;99.90;;;;;;5034602;28;20471;-76
2022/08/01 06:45:15;;;;;;;1.67;0.40;;;20.40;99.90;;;;;;5034812;28;20033;-76
2022/08/01 06:47:42;;;;;;;0.60;0.30;;;20.50;99.90;;;;;;5034317;28;20056;-75
2022/08/01 06:50:09;;;;;;;1.52;0.40;;;20.60;99.90;;;;;;5034547;28;20074;-75
2022/08/01 06:52:41;;;;;;;1.20;0.40;;;20.60;99.90;;;;;;5034237;28;20038;-76
2022/08/01 06:55:07;;;;;;;2.20;0.50;;;20.50;99.90;;;;;;5034213;28;20100;-76
2022/08/01 06:57:33;;;;;;;1.13;0.45;;;20.50;99.90;;;;;;5033811;28;20595;-76
2022/08/01 07:00:07;;;;;;;1.48;0.50;;;20.60;99.90;;;;;;5034525;28;20056;-75
2022/08/01 07:02:33;;;;;;;0.93;0.40;;;20.70;99.90;;;;;;5034296;28;20396;-75
2022/08/01 07:05:00;;;;;;;1.10;0.47;;;20.70;99.90;;;;;;5034479;28;20018;-75
2022/08/01 07:07:26;;;;;;;0.55;0.20;;;20.70;99.90;;;;;;5033928;28;20100;-75
2022/08/01 07:09:52;;;;;;;1.33;0.30;;;20.70;99.90;;;;;;5034266;28;20033;-76
2022/08/01 07:12:18;;;;;;;1.25;0.30;;;20.60;99.90;;;;;;5034315;28;20354;-75
2022/08/01 07:14:43;;;;;;;2.90;0.50;;;20.60;99.90;;;;;;5033910;28;20087;-75
2022/08/01 07:17:09;;;;;;;1.10;0.45;;;20.70;99.90;;;;;;5034088;28;20480;-75
2022/08/01 07:19:34;;;;;;;3.65;0.45;;;20.80;99.90;;;;;;5033611;28;20436;-76
2022/08/01 07:22:00;;;;;;;2.20;0.40;;;20.80;99.90;;;;;;5033840;28;20080;-75
2022/08/01 07:24:26;;;;;;;0.70;0.30;;;20.90;99.90;;;;;;5034090;28;20104;-76
2022/08/01 07:26:53;;;;;;;1.45;0.45;;;21.00;99.90;;;;;;5034185;28;20026;-75
2022/08/01 07:29:19;;;;;;;2.38;0.40;;;21.00;99.90;;;;;;5033859;28;20029;-76
2022/08/01 07:31:45;;;;;;;2.78;0.50;;;21.10;99.90;;;;;;5033459;28;20025;-76
2022/08/01 07:34:10;;;;;;;1.65;0.35;;;21.20;99.90;;;;;;5033694;28;20033;-76
2022/08/01 07:36:36;;;;;;;1.90;0.50;;;21.20;99.90;;;;;;5033507;28;20025;-76
2022/08/01 07:39:01;;;;;;;0.88;0.30;;;21.20;99.90;;;;;;5033783;28;20087;-76
2022/08/01 07:41:27;;;;;;;1.50;0.60;;;21.20;99.90;;;;;;5033680;28;20049;-75
2022/08/01 07:43:53;;;;;;;1.52;0.50;;;21.30;99.90;;;;;;5015925;28;20456;-75
2022/08/01 07:46:18;;;;;;;3.72;0.70;;;21.20;99.90;;;;;;5033711;28;20026;-75
2022/08/01 07:48:44;;;;;;;1.60;0.57;;;21.10;99.90;;;;;;5033513;28;20038;-76
2022/08/01 07:51:10;;;;;;;4.10;0.50;;;21.10;99.90;;;;;;5033429;28;20053;-75
2022/08/01 07:53:36;;;;;;;2.10;0.52;;;21.00;99.90;;;;;;5033662;28;20101;-75
2022/08/01 07:56:04;;;;;;;2.38;0.57;;;21.00;99.90;;;;;;5033523;28;20121;-75
2022/08/01 07:58:30;;;;;;;3.67;1.38;;;21.00;99.90;;;;;;5033547;28;20029;-75
2022/08/01 08:00:55;;;;;;;2.90;0.63;;;20.90;99.90;;;;;;5033401;28;20018;-76
2022/08/01 08:03:21;;;;;;;2.28;0.88;;;21.00;99.90;;;;;;5033764;28;20032;-76
2022/08/01 08:05:47;;;;;;;2.50;0.75;;;21.00;99.90;;;;;;5033313;28;20060;-75
2022/08/01 08:08:13;;;;;;;2.30;0.90;;;21.00;99.90;;;;;;5033023;28;20030;-76
2022/08/01 08:10:39;;;;;;;2.95;0.70;;;20.90;99.90;;;;;;5032548;28;20384;-76
2022/08/01 08:13:05;;;;;;;3.80;1.08;;;20.90;99.90;;;;;;5033420;28;20102;-76
2022/08/01 08:15:30;;;;;;;1.98;0.52;;;20.80;99.90;;;;;;5033054;28;20025;-75
2022/08/01 08:17:56;;;;;;;4.15;1.00;;;20.70;99.90;;;;;;5033062;28;20057;-76
2022/08/01 08:20:24;;;;;;;2.33;0.77;;;20.80;99.90;;;;;;5033539;28;20021;-75
2022/08/01 08:22:51;;;;;;;2.47;0.88;;;20.80;99.90;;;;;;5033105;28;20061;-76
2022/08/01 08:25:18;;;;;;;1.35;0.73;;;20.80;99.90;;;;;;5033359;28;20033;-76
2022/08/01 08:27:45;;;;;;;2.17;0.70;;;20.90;99.90;;;;;;5032918;28;20041;-75
2022/08/01 08:30:12;;;;;;;3.58;1.10;;;20.90;99.90;;;;;;5032855;28;20037;-76
2022/08/01 08:32:38;;;;;;;2.72;0.60;;;20.90;99.90;;;;;;5031993;28;20492;-75
2022/08/01 08:35:05;;;;;;;2.60;1.02;;;20.90;99.90;;;;;;5032266;28;20037;-75
2022/08/01 08:37:31;;;;;;;1.13;0.70;;;20.90;99.90;;;;;;5032605;28;20045;-76
2022/08/01 08:39:57;;;;;;;2.03;0.73;;;20.90;99.90;;;;;;5032529;28;20453;-76
2022/08/01 08:42:22;;;;;;;1.95;0.77;;;21.00;99.90;;;;;;5032437;28;20465;-75
2022/08/01 08:44:49;;;;;;;2.30;0.75;;;21.10;99.90;;;;;;5032244;28;20033;-76
2022/08/01 08:47:15;;;;;;;1.45;0.60;;;21.10;99.90;;;;;;5032482;28;20040;-75
2022/08/01 08:49:43;;;;;;;1.27;0.63;;;21.20;99.90;;;;;;5032400;28;20430;-75
2022/08/01 08:52:09;;;;;;;1.38;0.70;;;21.20;99.90;;;;;;5032812;28;20457;-74
2022/08/01 08:54:37;;;;;;;2.40;0.93;;;21.20;99.80;;;;;;5032014;28;20029;-75
2022/08/01 08:57:03;;;;;;;3.03;0.98;;;21.20;99.50;;;;;;5028807;28;20160;-76
2022/08/01 08:59:29;;;;;;;3.75;0.90;;;21.20;99.60;;;;;;5024265;28;20025;-76
2022/08/01 09:01:56;;;;;;;2.13;0.43;;;21.20;99.40;;;;;;5032318;28;20148;-76
2022/08/01 09:04:24;;;;;;;3.35;0.80;;;21.30;99.50;;;;;;5032323;28;20029;-75
2022/08/01 09:06:51;;;;;;;2.65;0.57;;;21.30;99.20;;;;;;5032412;28;20030;-76
2022/08/01 09:09:17;;;;;;;1.60;0.68;;;21.20;99.10;;;;;;5032138;28;20116;-76
2022/08/01 09:11:43;;;;;;;3.08;0.60;;;21.10;99.00;;;;;;5032544;28;20049;-76
2022/08/01 09:14:22;;;;;;;2.08;0.90;;;21.10;99.10;;;;;;5032296;28;20569;-76
2022/08/01 09:17:03;;;;;;;2.08;0.70;;;21.10;99.10;;;;;;5032390;28;20384;-77
2022/08/01 09:19:36;;;;;;;2.00;0.90;;;20.90;99.60;;;;;;5036777;28;20075;-74
2022/08/01 09:22:06;;;;;;;0.80;0.50;;;20.80;99.90;;;;;;5045628;28;20589;-76
2022/08/01 09:24:34;;;;;;;1.55;0.70;;;20.80;99.90;;;;;;5035770;28;20025;-73
2022/08/01 09:27:00;;;;;;;2.63;1.05;;;20.90;99.90;;;;;;5035158;28;20030;-74
2022/08/01 09:29:31;;;;;;;1.13;0.50;;;20.90;99.90;;;;;;5027452;28;20071;-77
2022/08/01 09:31:59;;;;;;;1.95;0.68;;;20.80;99.90;;;;;;5035631;28;20100;-77
2022/08/01 09:34:32;;;;;;;1.70;0.93;;;20.90;99.90;;;;;;5035901;28;20389;-74
2022/08/01 09:36:59;;;;;;;2.50;0.70;;;20.90;99.90;;;;;;5035054;28;20397;-75
2022/08/01 09:39:30;;;;;;;2.38;0.88;;;20.90;99.90;;;;;;5036038;28;20033;-75
2022/08/01 09:41:59;;;;;;;4.22;1.10;;;21.00;99.90;;;;;;5035257;28;20029;-77
2022/08/01 09:44:44;;;;;;;3.88;1.30;;;21.00;99.90;;;;;;5036005;28;20060;-75
2022/08/01 09:47:10;;;;;;;3.83;1.70;;;21.10;99.80;;;;;;5034984;28;20029;-74
2022/08/01 09:49:38;;;;;;;2.78;1.38;;;21.10;99.90;;;;;;5035566;28;20041;-74
2022/08/01 09:52:15;;;;;;;3.17;1.85;;;21.00;99.90;;;;;;5034960;28;20044;-74
2022/08/01 09:54:43;;;;;;;4.78;1.65;;;21.00;99.90;;;;;;5035598;28;20048;-74
2022/08/01 09:57:14;;;;;;;4.82;1.50;;;21.00;99.90;;;;;;5034934;28;20428;-74
2022/08/01 09:59:48;;;;;;;13.18;4.45;;;21.00;99.90;;;;;;5035673;28;20029;-74
2022/08/01 10:02:36;;;;;;;4.95;2.25;;;21.00;99.90;;;;;;5035155;28;20072;-75
2022/08/01 10:05:07;;;;;;;5.47;1.67;;;21.10;99.90;;;;;;5035440;28;20127;-74
2022/08/01 10:07:33;;;;;;;5.72;2.03;;;21.20;99.90;;;;;;5033473;28;20095;-76
2022/08/01 10:10:13;;;;;;;5.07;1.80;;;21.30;99.90;;;;;;5035554;28;20060;-76
2022/08/01 10:12:40;;;;;;;8.43;1.80;;;21.30;99.90;;;;;;5034740;28;20033;-76
2022/08/01 10:15:07;;;;;;;5.78;1.75;;;21.40;99.90;;;;;;5034937;28;20091;-77
2022/08/01 10:17:34;;;;;;;4.22;1.73;;;21.40;99.90;;;;;;5034846;28;20476;-76
2022/08/01 10:20:02;;;;;;;7.32;2.42;;;21.50;99.90;;;;;;5034858;28;20049;-76
2022/08/01 10:22:30;;;;;;;8.40;2.00;;;21.50;99.90;;;;;;5034768;28;20489;-76
2022/08/01 10:24:58;;;;;;;8.15;2.40;;;21.50;99.90;;;;;;5033439;28;20052;-76
2022/08/01 10:27:25;;;;;;;3.47;1.42;;;21.50;99.90;;;;;;5033020;28;20065;-76
2022/08/01 10:30:03;;;;;;;7.78;1.80;;;21.60;99.90;;;;;;5032867;28;20032;-76
2022/08/01 10:32:34;;;;;;;8.93;2.50;;;21.70;99.90;;;;;;5032364;28;20112;-76
2022/08/01 10:35:00;;;;;;;11.15;2.50;;;21.70;99.90;;;;;;5032607;28;20032;-76
2022/08/01 10:37:26;;;;;;;12.82;2.60;;;21.70;99.90;;;;;;5032885;28;20125;-76
2022/08/01 10:39:53;;;;;;;8.02;2.30;;;21.70;99.90;;;;;;5033786;28;20022;-76
2022/08/01 10:42:19;;;;;;;13.45;2.90;;;21.70;99.90;;;;;;5034974;28;20037;-76
2022/08/01 10:44:46;;;;;;;5.55;1.70;;;21.70;99.90;;;;;;5034607;28;20017;-76
2022/08/01 10:47:13;;;;;;;8.45;2.08;;;21.70;99.90;;;;;;5034803;28;20037;-76
2022/08/01 10:49:57;;;;;;;6.63;1.60;;;21.80;99.90;;;;;;5034782;28;20087;-76
2022/08/01 10:52:22;;;;;;;10.93;2.15;;;21.90;99.80;;;;;;5034496;28;20528;-76
2022/08/01 10:54:48;;;;;;;7.40;1.98;;;21.90;99.30;;;;;;5034712;28;20026;-76
2022/08/01 10:57:14;;;;;;;8.30;2.15;;;21.80;99.30;;;;;;5034443;28;20033;-76
2022/08/01 10:59:51;;;;;;;9.30;1.80;;;21.90;99.30;;;;;;5034690;28;20040;-76
2022/08/01 11:02:28;;;;;;;7.65;1.92;;;21.90;99.50;;;;;;5034256;28;20037;-76
2022/08/01 11:05:11;;;;;;;8.63;2.28;;;21.90;99.40;;;;;;5034282;28;20021;-76
2022/08/01 11:07:51;;;;;;;6.43;1.58;;;21.90;99.30;;;;;;5034261;28;20071;-76
2022/08/01 11:10:34;;;;;;;5.78;1.63;;;21.90;98.70;;;;;;5034514;28;20026;-76
2022/08/01 11:13:07;;;;;;;8.50;1.63;;;21.90;98.60;;;;;;5034076;28;20542;-76
2022/08/01 11:15:32;;;;;;;7.85;1.70;;;22.00;98.90;;;;;;5034571;28;20401;-76
2022/08/01 11:18:00;;;;;;;8.02;1.85;;;22.00;98.60;;;;;;5034184;28;20022;-76
2022/08/01 11:20:30;;;;;;;16.98;2.22;;;21.90;98.30;;;;;;5034101;28;20385;-76
2022/08/01 11:23:04;;;;;;;10.05;1.60;;;21.80;98.40;;;;;;5033766;28;20049;-76
2022/08/01 11:25:36;;;;;;;8.20;2.13;;;21.80;98.30;;;;;;5034285;28;20032;-76
2022/08/01 11:28:13;;;;;;;5.47;1.30;;;21.80;98.30;;;;;;5033786;28;20065;-76
2022/08/01 11:30:40;;;;;;;6.45;2.13;;;21.70;98.10;;;;;;5033834;28;20021;-76
2022/08/01 11:33:06;;;;;;;6.53;1.80;;;21.70;98.00;;;;;;5033830;28;20362;-76
2022/08/01 11:35:34;;;;;;;5.88;1.73;;;21.60;98.10;;;;;;5033720;28;20574;-76
2022/08/01 11:38:23;;;;;;;7.25;2.15;;;21.60;98.30;;;;;;5033641;28;20033;-76
2022/08/01 11:41:09;;;;;;;6.30;2.10;;;21.80;98.60;;;;;;5033685;28;20032;-76
2022/08/01 11:43:35;;;;;;;8.15;1.40;;;21.80;98.10;;;;;;5033203;28;20033;-76
2022/08/01 11:46:01;;;;;;;5.75;1.63;;;21.80;98.50;;;;;;5033196;28;20474;-76
2022/08/01 11:48:28;;;;;;;11.45;1.67;;;21.90;98.10;;;;;;5033713;28;20033;-76
2022/08/01 11:50:58;;;;;;;6.35;1.30;;;21.90;97.90;;;;;;5033624;28;20022;-76
2022/08/01 11:53:23;;;;;;;7.40;1.98;;;21.80;96.40;;;;;;5033059;28;20025;-76
2022/08/01 11:55:51;;;;;;;6.30;1.33;;;21.70;96.60;;;;;;5033715;28;20072;-76
2022/08/01 11:58:25;;;;;;;10.05;1.80;;;21.80;97.20;;;;;;5033276;28;20057;-76
2022/08/01 12:00:56;;;;;;;6.70;1.90;;;21.80;96.80;;;;;;5033435;28;20052;-76
2022/08/01 12:03:27;;;;;;;8.52;1.70;;;21.80;96.90;;;;;;5033187;28;20033;-76
2022/08/01 12:05:53;;;;;;;7.20;1.42;;;21.80;97.10;;;;;;5033705;28;20080;-76
2022/08/01 12:08:32;;;;;;;5.28;1.40;;;21.90;97.10;;;;;;5033338;28;20037;-76
2022/08/01 12:10:59;;;;;;;6.75;1.27;;;22.00;96.50;;;;;;5033104;28;20042;-76
2022/08/01 12:13:25;;;;;;;9.05;1.65;;;21.90;95.90;;;;;;5032946;28;20116;-76
2022/08/01 12:15:51;;;;;;;8.45;1.40;;;21.90;95.60;;;;;;5033249;28;20100;-76
2022/08/01 12:18:16;;;;;;;4.78;1.00;;;21.90;95.50;;;;;;5033509;28;20380;-76
2022/08/01 12:20:45;;;;;;;5.38;1.25;;;22.00;96.00;;;;;;5033041;28;20370;-76
2022/08/01 12:23:13;;;;;;;6.45;1.17;;;22.10;95.80;;;;;;5032942;28;20436;-76
2022/08/01 12:25:40;;;;;;;8.75;0.90;;;22.20;95.40;;;;;;5033059;28;20029;-76
2022/08/01 12:28:07;;;;;;;5.72;1.35;;;22.30;95.00;;;;;;5032932;28;20497;-76
2022/08/01 12:30:35;;;;;;;7.10;1.17;;;22.40;94.90;;;;;;5032983;28;20032;-76
2022/08/01 12:33:02;;;;;;;6.00;1.05;;;22.40;94.70;;;;;;5033312;28;20026;-76
2022/08/01 12:35:29;;;;;;;6.85;0.90;;;22.50;94.70;;;;;;5032865;28;20029;-76
2022/08/01 12:38:14;;;;;;;4.10;1.27;;;22.50;94.10;;;;;;5032689;28;20025;-76
2022/08/01 12:40:46;;;;;;;8.07;0.98;;;22.60;93.90;;;;;;5032967;28;20477;-76
2022/08/01 12:43:19;;;;;;;3.55;0.73;;;22.60;93.50;;;;;;5032982;28;20102;-76
2022/08/01 12:45:48;;;;;;;7.25;0.80;;;22.70;93.10;;;;;;5033054;28;20087;-76
2022/08/01 12:48:16;;;;;;;3.47;0.60;;;22.70;92.50;;;;;;5032503;28;20041;-76
2022/08/01 12:50:49;;;;;;;4.78;0.60;;;22.80;92.70;;;;;;5032831;28;20048;-76